sensor_id;sensor_type;location;lat;lon;timestamp;P1;durP1;ratioP1;P2;durP2;ratioP2
17727;SDS011;8984;49.268;12.302;2023-09-07T00:01:48;6.63;;;4.10;;
17727;SDS011;8984;49.268;12.302;2023-09-07T00:04:19;6.43;;;4.87;;
17727;SDS011;8984;49.268;12.302;2023-09-07T00:06:56;7.77;;;4.60;;
17727;SDS011;8984;49.268;12.302;2023-09-07T00:09:32;4.97;;;4.40;;
17727;SDS011;8984;49.268;12.302;2023-09-07T00:12:03;6.07;;;4.70;;
17727;SDS011;8984;49.268;12.302;2023-09-07T00:14:35;5.30;;;4.80;;
17727;SDS011;8984;49.268;12.302;2023-09-07T00:17:46;6.47;;;4.40;;
17727;SDS011;8984;49.268;12.302;2023-09-07T00:20:23;5.03;;;4.40;;
17727;SDS011;8984;49.268;12.302;2023-09-07T00:23:11;6.90;;;4.60;;
17727;SDS011;8984;49.268;12.302;2023-09-07T00:25:58;5.07;;;4.53;;
17727;SDS011;8984;49.268;12.302;2023-09-07T00:28:28;6.33;;;4.60;;
17727;SDS011;8984;49.268;12.302;2023-09-07T00:30:56;5.60;;;4.60;;
17727;SDS011;8984;49.268;12.302;2023-09-07T00:33:29;6.00;;;4.80;;
17727;SDS011;8984;49.268;12.302;2023-09-07T00:36:07;5.00;;;4.50;;
17727;SDS011;8984;49.268;12.302;2023-09-07T00:38:41;5.07;;;4.53;;
17727;SDS011;8984;49.268;12.302;2023-09-07T00:41:09;4.40;;;4.00;;
17727;SDS011;8984;49.268;12.302;2023-09-07T00:43:38;9.37;;;4.67;;
17727;SDS011;8984;49.268;12.302;2023-09-07T00:46:18;5.87;;;4.40;;
17727;SDS011;8984;49.268;12.302;2023-09-07T00:48:51;6.43;;;4.53;;
17727;SDS011;8984;49.268;12.302;2023-09-07T00:51:19;5.27;;;4.23;;
17727;SDS011;8984;49.268;12.302;2023-09-07T00:53:47;5.50;;;5.00;;
17727;SDS011;8984;49.268;12.302;2023-09-07T00:56:18;5.30;;;4.80;;
17727;SDS011;8984;49.268;12.302;2023-09-07T00:58:56;5.57;;;4.90;;
17727;SDS011;8984;49.268;12.302;2023-09-07T01:01:29;6.00;;;4.60;;
17727;SDS011;8984;49.268;12.302;2023-09-07T01:04:12;6.13;;;5.07;;
17727;SDS011;8984;49.268;12.302;2023-09-07T01:06:42;5.83;;;4.00;;
17727;SDS011;8984;49.268;12.302;2023-09-07T01:09:15;9.27;;;5.03;;
17727;SDS011;8984;49.268;12.302;2023-09-07T01:12:01;6.13;;;4.53;;
17727;SDS011;8984;49.268;12.302;2023-09-07T01:14:35;6.17;;;4.70;;
17727;SDS011;8984;49.268;12.302;2023-09-07T01:17:03;5.63;;;4.80;;
17727;SDS011;8984;49.268;12.302;2023-09-07T01:19:35;5.20;;;4.70;;
17727;SDS011;8984;49.268;12.302;2023-09-07T01:22:11;7.10;;;4.63;;
17727;SDS011;8984;49.268;12.302;2023-09-07T01:24:40;5.43;;;4.47;;
17727;SDS011;8984;49.268;12.302;2023-09-07T01:27:09;4.93;;;4.43;;
17727;SDS011;8984;49.268;12.302;2023-09-07T01:29:39;5.00;;;4.50;;
17727;SDS011;8984;49.268;12.302;2023-09-07T01:32:11;4.80;;;4.30;;
17727;SDS011;8984;49.268;12.302;2023-09-07T01:34:42;4.90;;;4.30;;
17727;SDS011;8984;49.268;12.302;2023-09-07T01:37:14;4.90;;;4.40;;
17727;SDS011;8984;49.268;12.302;2023-09-07T01:39:43;5.40;;;4.90;;
17727;SDS011;8984;49.268;12.302;2023-09-07T01:42:14;5.47;;;4.57;;
17727;SDS011;8984;49.268;12.302;2023-09-07T01:44:46;5.93;;;4.40;;
17727;SDS011;8984;49.268;12.302;2023-09-07T01:47:19;5.63;;;4.57;;
17727;SDS011;8984;49.268;12.302;2023-09-07T01:49:49;6.80;;;5.03;;
17727;SDS011;8984;49.268;12.302;2023-09-07T01:52:29;6.20;;;5.60;;
17727;SDS011;8984;49.268;12.302;2023-09-07T01:55:07;5.97;;;4.70;;
17727;SDS011;8984;49.268;12.302;2023-09-07T01:57:35;8.53;;;4.70;;
17727;SDS011;8984;49.268;12.302;2023-09-07T02:00:17;5.20;;;4.70;;
17727;SDS011;8984;49.268;12.302;2023-09-07T02:02:45;5.73;;;4.50;;
17727;SDS011;8984;49.268;12.302;2023-09-07T02:05:16;5.13;;;4.53;;
17727;SDS011;8984;49.268;12.302;2023-09-07T02:07:59;5.10;;;4.60;;
17727;SDS011;8984;49.268;12.302;2023-09-07T02:10:28;5.70;;;4.70;;
17727;SDS011;8984;49.268;12.302;2023-09-07T02:13:00;6.27;;;4.80;;
17727;SDS011;8984;49.268;12.302;2023-09-07T02:15:29;6.47;;;4.57;;
17727;SDS011;8984;49.268;12.302;2023-09-07T02:17:59;5.40;;;4.53;;
17727;SDS011;8984;49.268;12.302;2023-09-07T02:20:31;7.17;;;4.80;;
17727;SDS011;8984;49.268;12.302;2023-09-07T02:23:04;6.97;;;4.70;;
17727;SDS011;8984;49.268;12.302;2023-09-07T02:25:33;7.80;;;5.13;;
17727;SDS011;8984;49.268;12.302;2023-09-07T02:28:09;5.70;;;5.10;;
17727;SDS011;8984;49.268;12.302;2023-09-07T02:30:40;6.83;;;4.80;;
17727;SDS011;8984;49.268;12.302;2023-09-07T02:33:13;5.27;;;4.77;;
17727;SDS011;8984;49.268;12.302;2023-09-07T02:35:42;6.57;;;4.47;;
17727;SDS011;8984;49.268;12.302;2023-09-07T02:40:55;6.20;;;5.03;;
17727;SDS011;8984;49.268;12.302;2023-09-07T02:43:27;5.97;;;4.63;;
17727;SDS011;8984;49.268;12.302;2023-09-07T02:45:58;5.20;;;4.70;;
17727;SDS011;8984;49.268;12.302;2023-09-07T02:48:27;6.50;;;5.10;;
17727;SDS011;8984;49.268;12.302;2023-09-07T02:51:07;5.37;;;4.80;;
17727;SDS011;8984;49.268;12.302;2023-09-07T02:53:55;5.10;;;4.60;;
17727;SDS011;8984;49.268;12.302;2023-09-07T02:59:49;6.47;;;4.43;;
17727;SDS011;8984;49.268;12.302;2023-09-07T03:02:25;5.73;;;4.50;;
17727;SDS011;8984;49.268;12.302;2023-09-07T03:04:54;7.03;;;4.83;;
17727;SDS011;8984;49.268;12.302;2023-09-07T03:07:33;5.33;;;4.60;;
17727;SDS011;8984;49.268;12.302;2023-09-07T03:10:09;4.83;;;4.13;;
17727;SDS011;8984;49.268;12.302;2023-09-07T03:12:41;6.17;;;4.97;;
17727;SDS011;8984;49.268;12.302;2023-09-07T03:15:11;5.97;;;4.67;;
17727;SDS011;8984;49.268;12.302;2023-09-07T03:17:43;9.00;;;5.03;;
17727;SDS011;8984;49.268;12.302;2023-09-07T03:20:10;5.83;;;4.43;;
17727;SDS011;8984;49.268;12.302;2023-09-07T03:22:40;5.10;;;4.60;;
17727;SDS011;8984;49.268;12.302;2023-09-07T03:25:11;6.63;;;5.13;;
17727;SDS011;8984;49.268;12.302;2023-09-07T03:27:47;5.73;;;4.83;;
17727;SDS011;8984;49.268;12.302;2023-09-07T03:30:19;9.90;;;4.73;;
17727;SDS011;8984;49.268;12.302;2023-09-07T03:32:50;4.47;;;4.07;;
17727;SDS011;8984;49.268;12.302;2023-09-07T03:35:28;5.10;;;4.60;;
17727;SDS011;8984;49.268;12.302;2023-09-07T03:38:03;5.43;;;4.93;;
17727;SDS011;8984;49.268;12.302;2023-09-07T03:40:33;7.83;;;4.60;;
17727;SDS011;8984;49.268;12.302;2023-09-07T03:43:11;5.83;;;4.23;;
17727;SDS011;8984;49.268;12.302;2023-09-07T03:45:41;6.13;;;4.43;;
17727;SDS011;8984;49.268;12.302;2023-09-07T03:48:20;7.27;;;4.73;;
17727;SDS011;8984;49.268;12.302;2023-09-07T03:50:56;5.30;;;4.80;;
17727;SDS011;8984;49.268;12.302;2023-09-07T03:53:26;5.43;;;4.87;;
17727;SDS011;8984;49.268;12.302;2023-09-07T03:56:05;5.43;;;4.70;;
17727;SDS011;8984;49.268;12.302;2023-09-07T03:58:34;6.77;;;5.10;;
17727;SDS011;8984;49.268;12.302;2023-09-07T04:01:08;6.73;;;5.00;;
17727;SDS011;8984;49.268;12.302;2023-09-07T04:03:49;5.23;;;4.73;;
17727;SDS011;8984;49.268;12.302;2023-09-07T04:06:19;5.33;;;4.83;;
17727;SDS011;8984;49.268;12.302;2023-09-07T04:08:49;6.20;;;5.23;;
17727;SDS011;8984;49.268;12.302;2023-09-07T04:11:35;6.83;;;5.20;;
17727;SDS011;8984;49.268;12.302;2023-09-07T04:14:11;7.47;;;4.70;;
17727;SDS011;8984;49.268;12.302;2023-09-07T04:16:53;5.43;;;4.37;;
17727;SDS011;8984;49.268;12.302;2023-09-07T04:19:39;5.47;;;4.80;;
17727;SDS011;8984;49.268;12.302;2023-09-07T04:22:11;7.07;;;5.40;;
17727;SDS011;8984;49.268;12.302;2023-09-07T04:24:43;6.00;;;4.90;;
17727;SDS011;8984;49.268;12.302;2023-09-07T04:30:00;5.50;;;4.90;;
17727;SDS011;8984;49.268;12.302;2023-09-07T04:32:42;7.57;;;5.30;;
17727;SDS011;8984;49.268;12.302;2023-09-07T04:35:13;6.37;;;5.07;;
17727;SDS011;8984;49.268;12.302;2023-09-07T04:37:43;5.30;;;4.80;;
17727;SDS011;8984;49.268;12.302;2023-09-07T04:40:14;5.23;;;4.77;;
17727;SDS011;8984;49.268;12.302;2023-09-07T04:42:50;6.13;;;4.53;;
17727;SDS011;8984;49.268;12.302;2023-09-07T04:45:22;5.17;;;4.67;;
17727;SDS011;8984;49.268;12.302;2023-09-07T04:47:56;5.77;;;5.23;;
17727;SDS011;8984;49.268;12.302;2023-09-07T04:50:24;7.60;;;5.20;;
17727;SDS011;8984;49.268;12.302;2023-09-07T04:52:56;9.10;;;5.33;;
17727;SDS011;8984;49.268;12.302;2023-09-07T04:55:25;7.50;;;5.40;;
17727;SDS011;8984;49.268;12.302;2023-09-07T04:57:54;7.10;;;4.70;;
17727;SDS011;8984;49.268;12.302;2023-09-07T05:00:23;5.30;;;4.80;;
17727;SDS011;8984;49.268;12.302;2023-09-07T05:06:14;6.47;;;4.47;;
17727;SDS011;8984;49.268;12.302;2023-09-07T05:08:41;6.83;;;5.43;;
17727;SDS011;8984;49.268;12.302;2023-09-07T05:11:09;8.00;;;4.33;;
17727;SDS011;8984;49.268;12.302;2023-09-07T05:13:41;8.37;;;4.77;;
17727;SDS011;8984;49.268;12.302;2023-09-07T05:16:11;5.63;;;4.53;;
17727;SDS011;8984;49.268;12.302;2023-09-07T05:18:41;7.73;;;4.47;;
17727;SDS011;8984;49.268;12.302;2023-09-07T05:21:13;7.87;;;4.50;;
17727;SDS011;8984;49.268;12.302;2023-09-07T05:23:43;7.63;;;5.30;;
17727;SDS011;8984;49.268;12.302;2023-09-07T05:26:20;12.23;;;5.17;;
17727;SDS011;8984;49.268;12.302;2023-09-07T05:28:49;8.03;;;4.73;;
17727;SDS011;8984;49.268;12.302;2023-09-07T05:31:19;5.87;;;4.40;;
17727;SDS011;8984;49.268;12.302;2023-09-07T05:33:46;5.88;;;4.60;;
17727;SDS011;8984;49.268;12.302;2023-09-07T05:36:22;5.50;;;4.10;;
17727;SDS011;8984;49.268;12.302;2023-09-07T05:38:50;4.50;;;4.05;;
17727;SDS011;8984;49.268;12.302;2023-09-07T05:41:17;6.15;;;4.03;;
17727;SDS011;8984;49.268;12.302;2023-09-07T05:43:45;5.07;;;3.88;;
17727;SDS011;8984;49.268;12.302;2023-09-07T05:46:18;5.38;;;3.85;;
17727;SDS011;8984;49.268;12.302;2023-09-07T05:48:47;8.55;;;4.40;;
17727;SDS011;8984;49.268;12.302;2023-09-07T05:51:26;5.55;;;4.15;;
17727;SDS011;8984;49.268;12.302;2023-09-07T05:53:55;5.25;;;4.00;;
17727;SDS011;8984;49.268;12.302;2023-09-07T05:56:22;4.10;;;3.70;;
17727;SDS011;8984;49.268;12.302;2023-09-07T05:58:55;4.50;;;3.83;;
17727;SDS011;8984;49.268;12.302;2023-09-07T06:01:29;6.03;;;4.00;;
17727;SDS011;8984;49.268;12.302;2023-09-07T06:03:58;4.22;;;3.72;;
17727;SDS011;8984;49.268;12.302;2023-09-07T06:06:26;5.18;;;3.75;;
17727;SDS011;8984;49.268;12.302;2023-09-07T06:08:54;6.10;;;4.40;;
17727;SDS011;8984;49.268;12.302;2023-09-07T06:11:21;4.93;;;3.85;;
17727;SDS011;8984;49.268;12.302;2023-09-07T06:13:52;5.38;;;4.22;;
17727;SDS011;8984;49.268;12.302;2023-09-07T06:16:31;4.72;;;4.03;;
17727;SDS011;8984;49.268;12.302;2023-09-07T06:19:01;6.15;;;4.00;;
17727;SDS011;8984;49.268;12.302;2023-09-07T06:21:34;8.45;;;4.03;;
17727;SDS011;8984;49.268;12.302;2023-09-07T06:24:03;4.93;;;4.10;;
17727;SDS011;8984;49.268;12.302;2023-09-07T06:26:32;5.07;;;4.20;;
17727;SDS011;8984;49.268;12.302;2023-09-07T06:29:01;5.88;;;4.50;;
17727;SDS011;8984;49.268;12.302;2023-09-07T06:31:30;4.18;;;3.72;;
17727;SDS011;8984;49.268;12.302;2023-09-07T06:33:58;6.18;;;4.28;;
17727;SDS011;8984;49.268;12.302;2023-09-07T06:36:26;10.25;;;4.20;;
17727;SDS011;8984;49.268;12.302;2023-09-07T06:38:56;7.30;;;3.90;;
17727;SDS011;8984;49.268;12.302;2023-09-07T06:41:24;5.88;;;3.97;;
17727;SDS011;8984;49.268;12.302;2023-09-07T06:43:57;6.63;;;3.83;;
17727;SDS011;8984;49.268;12.302;2023-09-07T06:46:43;5.15;;;3.97;;
17727;SDS011;8984;49.268;12.302;2023-09-07T06:49:11;5.63;;;3.75;;
17727;SDS011;8984;49.268;12.302;2023-09-07T06:51:38;5.13;;;3.85;;
17727;SDS011;8984;49.268;12.302;2023-09-07T06:54:07;5.40;;;4.38;;
17727;SDS011;8984;49.268;12.302;2023-09-07T06:56:36;4.03;;;3.60;;
17727;SDS011;8984;49.268;12.302;2023-09-07T06:59:11;3.85;;;3.53;;
17727;SDS011;8984;49.268;12.302;2023-09-07T07:01:40;4.15;;;3.70;;
17727;SDS011;8984;49.268;12.302;2023-09-07T07:04:16;8.18;;;3.92;;
17727;SDS011;8984;49.268;12.302;2023-09-07T07:06:51;9.05;;;4.30;;
17727;SDS011;8984;49.268;12.302;2023-09-07T07:09:20;7.18;;;4.10;;
17727;SDS011;8984;49.268;12.302;2023-09-07T07:11:49;5.60;;;3.85;;
17727;SDS011;8984;49.268;12.302;2023-09-07T07:14:23;6.85;;;3.97;;
17727;SDS011;8984;49.268;12.302;2023-09-07T07:16:53;4.90;;;3.67;;
17727;SDS011;8984;49.268;12.302;2023-09-07T07:19:36;6.75;;;3.90;;
17727;SDS011;8984;49.268;12.302;2023-09-07T07:22:04;7.07;;;3.80;;
17727;SDS011;8984;49.268;12.302;2023-09-07T07:24:33;5.80;;;3.97;;
17727;SDS011;8984;49.268;12.302;2023-09-07T07:27:03;4.70;;;3.78;;
17727;SDS011;8984;49.268;12.302;2023-09-07T07:29:31;6.03;;;3.42;;
17727;SDS011;8984;49.268;12.302;2023-09-07T07:32:04;6.57;;;3.72;;
17727;SDS011;8984;49.268;12.302;2023-09-07T07:34:32;4.75;;;3.63;;
17727;SDS011;8984;49.268;12.302;2023-09-07T07:37:03;4.65;;;3.50;;
17727;SDS011;8984;49.268;12.302;2023-09-07T07:39:36;4.78;;;3.72;;
17727;SDS011;8984;49.268;12.302;2023-09-07T07:42:08;6.22;;;4.10;;
17727;SDS011;8984;49.268;12.302;2023-09-07T07:44:44;5.05;;;3.30;;
17727;SDS011;8984;49.268;12.302;2023-09-07T07:47:13;7.80;;;3.60;;
17727;SDS011;8984;49.268;12.302;2023-09-07T07:49:44;4.38;;;3.50;;
17727;SDS011;8984;49.268;12.302;2023-09-07T07:52:14;4.15;;;3.35;;
17727;SDS011;8984;49.268;12.302;2023-09-07T07:54:44;3.92;;;3.38;;
17727;SDS011;8984;49.268;12.302;2023-09-07T07:57:28;3.67;;;3.20;;
17727;SDS011;8984;49.268;12.302;2023-09-07T07:59:56;3.47;;;3.17;;
17727;SDS011;8984;49.268;12.302;2023-09-07T08:02:26;4.32;;;3.42;;
17727;SDS011;8984;49.268;12.302;2023-09-07T08:04:59;6.50;;;3.08;;
17727;SDS011;8984;49.268;12.302;2023-09-07T08:10:14;7.47;;;3.45;;
17727;SDS011;8984;49.268;12.302;2023-09-07T08:12:52;5.25;;;3.17;;
17727;SDS011;8984;49.268;12.302;2023-09-07T08:15:21;9.02;;;3.20;;
17727;SDS011;8984;49.268;12.302;2023-09-07T08:17:51;4.25;;;3.20;;
17727;SDS011;8984;49.268;12.302;2023-09-07T08:20:21;5.22;;;3.03;;
17727;SDS011;8984;49.268;12.302;2023-09-07T08:22:56;3.60;;;3.30;;
17727;SDS011;8984;49.268;12.302;2023-09-07T08:25:32;3.67;;;2.70;;
17727;SDS011;8984;49.268;12.302;2023-09-07T08:28:07;4.28;;;3.00;;
17727;SDS011;8984;49.268;12.302;2023-09-07T08:30:35;4.57;;;2.90;;
17727;SDS011;8984;49.268;12.302;2023-09-07T08:33:03;2.95;;;2.53;;
17727;SDS011;8984;49.268;12.302;2023-09-07T08:35:32;6.57;;;3.40;;
17727;SDS011;8984;49.268;12.302;2023-09-07T08:38:09;5.20;;;3.38;;
17727;SDS011;8984;49.268;12.302;2023-09-07T08:40:45;4.15;;;3.10;;
17727;SDS011;8984;49.268;12.302;2023-09-07T08:43:16;4.55;;;2.95;;
17727;SDS011;8984;49.268;12.302;2023-09-07T08:45:46;3.97;;;2.88;;
17727;SDS011;8984;49.268;12.302;2023-09-07T08:48:24;8.30;;;3.20;;
17727;SDS011;8984;49.268;12.302;2023-09-07T08:50:56;3.85;;;2.88;;
17727;SDS011;8984;49.268;12.302;2023-09-07T08:53:29;5.07;;;2.90;;
17727;SDS011;8984;49.268;12.302;2023-09-07T08:55:58;3.63;;;2.78;;
17727;SDS011;8984;49.268;12.302;2023-09-07T08:58:27;3.53;;;2.63;;
17727;SDS011;8984;49.268;12.302;2023-09-07T09:00:57;4.03;;;2.78;;
17727;SDS011;8984;49.268;12.302;2023-09-07T09:03:26;6.35;;;3.10;;
17727;SDS011;8984;49.268;12.302;2023-09-07T09:05:56;3.30;;;2.70;;
17727;SDS011;8984;49.268;12.302;2023-09-07T09:11:32;4.93;;;3.03;;
17727;SDS011;8984;49.268;12.302;2023-09-07T09:14:05;7.72;;;3.20;;
17727;SDS011;8984;49.268;12.302;2023-09-07T09:16:34;3.85;;;3.00;;
17727;SDS011;8984;49.268;12.302;2023-09-07T09:19:02;3.55;;;3.00;;
17727;SDS011;8984;49.268;12.302;2023-09-07T09:21:30;4.25;;;2.65;;
17727;SDS011;8984;49.268;12.302;2023-09-07T09:24:09;3.25;;;2.85;;
17727;SDS011;8984;49.268;12.302;2023-09-07T09:26:41;3.95;;;3.20;;
17727;SDS011;8984;49.268;12.302;2023-09-07T09:32:46;2.92;;;2.50;;
17727;SDS011;8984;49.268;12.302;2023-09-07T09:35:21;3.75;;;2.67;;
17727;SDS011;8984;49.268;12.302;2023-09-07T09:37:50;5.10;;;2.65;;
17727;SDS011;8984;49.268;12.302;2023-09-07T09:40:22;4.15;;;2.50;;
17727;SDS011;8984;49.268;12.302;2023-09-07T09:42:52;3.80;;;3.20;;
17727;SDS011;8984;49.268;12.302;2023-09-07T09:45:27;4.03;;;2.95;;
17727;SDS011;8984;49.268;12.302;2023-09-07T09:47:56;2.60;;;2.40;;
17727;SDS011;8984;49.268;12.302;2023-09-07T09:53:52;2.80;;;2.50;;
17727;SDS011;8984;49.268;12.302;2023-09-07T09:56:41;3.92;;;2.90;;
17727;SDS011;8984;49.268;12.302;2023-09-07T09:59:09;3.75;;;2.78;;
17727;SDS011;8984;49.268;12.302;2023-09-07T10:01:41;3.72;;;2.70;;
17727;SDS011;8984;49.268;12.302;2023-09-07T10:04:12;5.68;;;2.88;;
17727;SDS011;8984;49.268;12.302;2023-09-07T10:09:41;5.00;;;3.13;;
17727;SDS011;8984;49.268;12.302;2023-09-07T10:12:15;3.60;;;2.83;;
17727;SDS011;8984;49.268;12.302;2023-09-07T10:14:56;3.10;;;2.70;;
17727;SDS011;8984;49.268;12.302;2023-09-07T10:17:32;5.32;;;2.60;;
17727;SDS011;8984;49.268;12.302;2023-09-07T10:20:02;5.95;;;2.85;;
17727;SDS011;8984;49.268;12.302;2023-09-07T10:22:47;7.88;;;2.80;;
17727;SDS011;8984;49.268;12.302;2023-09-07T10:25:18;6.43;;;2.97;;
17727;SDS011;8984;49.268;12.302;2023-09-07T10:31:17;5.18;;;2.80;;
17727;SDS011;8984;49.268;12.302;2023-09-07T10:33:49;4.20;;;3.13;;
17727;SDS011;8984;49.268;12.302;2023-09-07T10:36:36;3.65;;;2.83;;
17727;SDS011;8984;49.268;12.302;2023-09-07T10:39:10;5.78;;;2.92;;
17727;SDS011;8984;49.268;12.302;2023-09-07T10:41:42;4.93;;;2.67;;
17727;SDS011;8984;49.268;12.302;2023-09-07T10:44:15;3.67;;;2.70;;
17727;SDS011;8984;49.268;12.302;2023-09-07T10:46:58;3.88;;;3.10;;
17727;SDS011;8984;49.268;12.302;2023-09-07T10:49:29;3.88;;;2.88;;
17727;SDS011;8984;49.268;12.302;2023-09-07T10:51:59;3.00;;;2.70;;
17727;SDS011;8984;49.268;12.302;2023-09-07T10:54:29;4.43;;;2.92;;
17727;SDS011;8984;49.268;12.302;2023-09-07T10:57:07;5.70;;;2.97;;
17727;SDS011;8984;49.268;12.302;2023-09-07T10:59:43;3.47;;;2.70;;
17727;SDS011;8984;49.268;12.302;2023-09-07T11:02:19;3.45;;;2.72;;
17727;SDS011;8984;49.268;12.302;2023-09-07T11:04:53;4.63;;;3.03;;
17727;SDS011;8984;49.268;12.302;2023-09-07T11:07:22;6.00;;;3.10;;
17727;SDS011;8984;49.268;12.302;2023-09-07T11:09:54;3.47;;;3.10;;
17727;SDS011;8984;49.268;12.302;2023-09-07T11:12:23;3.53;;;2.70;;
17727;SDS011;8984;49.268;12.302;2023-09-07T11:14:54;4.30;;;2.95;;
17727;SDS011;8984;49.268;12.302;2023-09-07T11:17:29;3.20;;;2.90;;
17727;SDS011;8984;49.268;12.302;2023-09-07T11:20:03;3.63;;;3.00;;
17727;SDS011;8984;49.268;12.302;2023-09-07T11:22:35;3.90;;;2.95;;
17727;SDS011;8984;49.268;12.302;2023-09-07T11:25:10;4.72;;;2.47;;
17727;SDS011;8984;49.268;12.302;2023-09-07T11:27:45;8.05;;;3.08;;
17727;SDS011;8984;49.268;12.302;2023-09-07T11:33:06;3.33;;;2.92;;
17727;SDS011;8984;49.268;12.302;2023-09-07T11:35:34;3.03;;;2.58;;
17727;SDS011;8984;49.268;12.302;2023-09-07T11:38:04;2.60;;;2.38;;
17727;SDS011;8984;49.268;12.302;2023-09-07T11:40:36;3.95;;;2.90;;
17727;SDS011;8984;49.268;12.302;2023-09-07T11:43:20;3.65;;;3.00;;
17727;SDS011;8984;49.268;12.302;2023-09-07T11:45:48;3.42;;;2.55;;
17727;SDS011;8984;49.268;12.302;2023-09-07T11:48:31;3.42;;;2.58;;
17727;SDS011;8984;49.268;12.302;2023-09-07T11:51:06;4.40;;;3.13;;
17727;SDS011;8984;49.268;12.302;2023-09-07T11:53:54;5.47;;;2.70;;
17727;SDS011;8984;49.268;12.302;2023-09-07T11:56:28;3.85;;;2.63;;
17727;SDS011;8984;49.268;12.302;2023-09-07T11:58:59;4.57;;;2.60;;
17727;SDS011;8984;49.268;12.302;2023-09-07T12:01:31;4.32;;;2.80;;
17727;SDS011;8984;49.268;12.302;2023-09-07T12:03:59;5.78;;;2.80;;
17727;SDS011;8984;49.268;12.302;2023-09-07T12:06:29;3.70;;;3.08;;
17727;SDS011;8984;49.268;12.302;2023-09-07T12:08:58;6.40;;;2.85;;
17727;SDS011;8984;49.268;12.302;2023-09-07T12:11:29;3.95;;;2.80;;
17727;SDS011;8984;49.268;12.302;2023-09-07T12:13:57;5.63;;;2.83;;
17727;SDS011;8984;49.268;12.302;2023-09-07T12:16:31;5.85;;;3.00;;
17727;SDS011;8984;49.268;12.302;2023-09-07T12:19:04;6.13;;;2.95;;
17727;SDS011;8984;49.268;12.302;2023-09-07T12:21:39;3.22;;;2.67;;
17727;SDS011;8984;49.268;12.302;2023-09-07T12:24:12;6.20;;;3.22;;
17727;SDS011;8984;49.268;12.302;2023-09-07T12:26:39;4.78;;;2.90;;
17727;SDS011;8984;49.268;12.302;2023-09-07T12:29:07;5.38;;;2.60;;
17727;SDS011;8984;49.268;12.302;2023-09-07T12:31:35;3.65;;;2.78;;
17727;SDS011;8984;49.268;12.302;2023-09-07T12:34:07;2.97;;;2.60;;
17727;SDS011;8984;49.268;12.302;2023-09-07T12:36:35;3.67;;;2.60;;
17727;SDS011;8984;49.268;12.302;2023-09-07T12:39:04;4.75;;;3.08;;
17727;SDS011;8984;49.268;12.302;2023-09-07T12:41:33;5.30;;;2.83;;
17727;SDS011;8984;49.268;12.302;2023-09-07T12:44:00;3.03;;;2.60;;
17727;SDS011;8984;49.268;12.302;2023-09-07T12:46:33;4.13;;;2.55;;
17727;SDS011;8984;49.268;12.302;2023-09-07T12:49:08;3.33;;;2.60;;
17727;SDS011;8984;49.268;12.302;2023-09-07T12:51:50;3.20;;;2.75;;
17727;SDS011;8984;49.268;12.302;2023-09-07T12:54:17;8.23;;;3.08;;
17727;SDS011;8984;49.268;12.302;2023-09-07T12:56:52;4.18;;;2.50;;
17727;SDS011;8984;49.268;12.302;2023-09-07T12:59:26;5.00;;;3.10;;
17727;SDS011;8984;49.268;12.302;2023-09-07T13:02:06;4.20;;;2.95;;
17727;SDS011;8984;49.268;12.302;2023-09-07T13:07:31;3.35;;;2.80;;
17727;SDS011;8984;49.268;12.302;2023-09-07T13:10:00;3.95;;;2.65;;
17727;SDS011;8984;49.268;12.302;2023-09-07T13:12:29;4.15;;;2.80;;
17727;SDS011;8984;49.268;12.302;2023-09-07T13:14:58;4.10;;;2.58;;
17727;SDS011;8984;49.268;12.302;2023-09-07T13:17:28;3.65;;;2.70;;
17727;SDS011;8984;49.268;12.302;2023-09-07T13:20:00;5.22;;;2.63;;
17727;SDS011;8984;49.268;12.302;2023-09-07T13:22:33;4.80;;;2.30;;
17727;SDS011;8984;49.268;12.302;2023-09-07T13:25:05;6.28;;;2.97;;
17727;SDS011;8984;49.268;12.302;2023-09-07T13:27:37;4.57;;;2.60;;
17727;SDS011;8984;49.268;12.302;2023-09-07T13:30:14;7.00;;;3.10;;
17727;SDS011;8984;49.268;12.302;2023-09-07T13:32:55;4.28;;;2.55;;
17727;SDS011;8984;49.268;12.302;2023-09-07T13:35:24;6.13;;;2.50;;
17727;SDS011;8984;49.268;12.302;2023-09-07T13:37:53;3.72;;;2.58;;
17727;SDS011;8984;49.268;12.302;2023-09-07T13:40:22;3.20;;;2.60;;
17727;SDS011;8984;49.268;12.302;2023-09-07T13:43:07;2.60;;;2.40;;
17727;SDS011;8984;49.268;12.302;2023-09-07T13:45:36;5.55;;;2.47;;
17727;SDS011;8984;49.268;12.302;2023-09-07T13:48:05;5.00;;;2.80;;
17727;SDS011;8984;49.268;12.302;2023-09-07T13:50:33;5.35;;;2.97;;
17727;SDS011;8984;49.268;12.302;2023-09-07T13:53:10;3.65;;;2.85;;
17727;SDS011;8984;49.268;12.302;2023-09-07T13:55:38;3.63;;;2.60;;
17727;SDS011;8984;49.268;12.302;2023-09-07T13:58:07;5.13;;;2.58;;
17727;SDS011;8984;49.268;12.302;2023-09-07T14:00:41;5.30;;;2.63;;
17727;SDS011;8984;49.268;12.302;2023-09-07T14:03:09;2.70;;;2.47;;
17727;SDS011;8984;49.268;12.302;2023-09-07T14:05:37;5.35;;;2.70;;
17727;SDS011;8984;49.268;12.302;2023-09-07T14:08:06;4.22;;;2.83;;
17727;SDS011;8984;49.268;12.302;2023-09-07T14:10:48;9.57;;;3.08;;
17727;SDS011;8984;49.268;12.302;2023-09-07T14:13:26;4.70;;;2.63;;
17727;SDS011;8984;49.268;12.302;2023-09-07T14:15:54;7.32;;;2.80;;
17727;SDS011;8984;49.268;12.302;2023-09-07T14:18:28;2.90;;;2.45;;
17727;SDS011;8984;49.268;12.302;2023-09-07T14:20:59;8.25;;;2.75;;
17727;SDS011;8984;49.268;12.302;2023-09-07T14:23:33;3.58;;;2.70;;
17727;SDS011;8984;49.268;12.302;2023-09-07T14:26:02;4.25;;;2.60;;
17727;SDS011;8984;49.268;12.302;2023-09-07T14:28:34;3.78;;;2.70;;
17727;SDS011;8984;49.268;12.302;2023-09-07T14:31:07;3.58;;;2.92;;
17727;SDS011;8984;49.268;12.302;2023-09-07T14:33:35;5.40;;;2.78;;
17727;SDS011;8984;49.268;12.302;2023-09-07T14:36:07;5.43;;;2.58;;
17727;SDS011;8984;49.268;12.302;2023-09-07T14:38:45;6.03;;;3.00;;
17727;SDS011;8984;49.268;12.302;2023-09-07T14:41:12;5.50;;;2.70;;
17727;SDS011;8984;49.268;12.302;2023-09-07T14:43:44;4.75;;;3.17;;
17727;SDS011;8984;49.268;12.302;2023-09-07T14:46:14;5.68;;;2.53;;
17727;SDS011;8984;49.268;12.302;2023-09-07T14:48:43;5.40;;;2.90;;
17727;SDS011;8984;49.268;12.302;2023-09-07T14:51:13;2.95;;;2.35;;
17727;SDS011;8984;49.268;12.302;2023-09-07T14:53:44;2.67;;;2.30;;
17727;SDS011;8984;49.268;12.302;2023-09-07T14:56:11;3.80;;;2.38;;
17727;SDS011;8984;49.268;12.302;2023-09-07T14:58:39;4.60;;;2.88;;
17727;SDS011;8984;49.268;12.302;2023-09-07T15:01:11;3.08;;;2.67;;
17727;SDS011;8984;49.268;12.302;2023-09-07T15:03:41;4.70;;;2.85;;
17727;SDS011;8984;49.268;12.302;2023-09-07T15:06:10;5.07;;;2.50;;
17727;SDS011;8984;49.268;12.302;2023-09-07T15:08:37;4.43;;;2.50;;
17727;SDS011;8984;49.268;12.302;2023-09-07T15:11:07;6.43;;;3.05;;
17727;SDS011;8984;49.268;12.302;2023-09-07T15:13:37;5.38;;;3.28;;
17727;SDS011;8984;49.268;12.302;2023-09-07T15:16:04;8.48;;;3.63;;
17727;SDS011;8984;49.268;12.302;2023-09-07T15:18:33;4.45;;;2.75;;
17727;SDS011;8984;49.268;12.302;2023-09-07T15:21:04;6.10;;;2.30;;
17727;SDS011;8984;49.268;12.302;2023-09-07T15:23:33;4.90;;;3.97;;
17727;SDS011;8984;49.268;12.302;2023-09-07T15:26:01;4.30;;;3.42;;
17727;SDS011;8984;49.268;12.302;2023-09-07T15:28:36;6.13;;;2.50;;
17727;SDS011;8984;49.268;12.302;2023-09-07T15:31:06;4.93;;;2.58;;
17727;SDS011;8984;49.268;12.302;2023-09-07T15:33:34;6.60;;;2.45;;
17727;SDS011;8984;49.268;12.302;2023-09-07T15:36:07;5.70;;;2.45;;
17727;SDS011;8984;49.268;12.302;2023-09-07T15:38:53;3.85;;;2.75;;
17727;SDS011;8984;49.268;12.302;2023-09-07T15:41:23;4.80;;;2.47;;
17727;SDS011;8984;49.268;12.302;2023-09-07T15:44:00;4.05;;;2.72;;
17727;SDS011;8984;49.268;12.302;2023-09-07T15:46:27;5.38;;;2.72;;
17727;SDS011;8984;49.268;12.302;2023-09-07T15:48:55;4.05;;;2.53;;
17727;SDS011;8984;49.268;12.302;2023-09-07T15:51:24;4.70;;;2.30;;
17727;SDS011;8984;49.268;12.302;2023-09-07T15:53:54;4.13;;;2.10;;
17727;SDS011;8984;49.268;12.302;2023-09-07T15:56:28;4.40;;;2.45;;